Aviation Digital Data Service (ADDS)

Output produced by METARs form (0121 UTC 19 November 2018)
found at http://www.aviationweather.gov/metar/data/
 
METAR text: RJFR 190100Z 31005KT 9999 FEW030 BKN150 16/06 Q1019
Conditions at: RJFR (KITAKYUSHU/KOKUR, JP) observed 0100 UTC 19 November 2018
Temperature: 16.0°C (61°F)
Dewpoint: 6.0°C (43°F) [RH = 51%]
Pressure (altimeter): 30.09 inches Hg (1019.0 mb)
Winds: from the NW (310 degrees) at 6 MPH (5 knots; 2.6 m/s)
Visibility: 6 or more miles (10+ km)
Ceiling: 15000 feet AGL
Clouds: few clouds at 3000 feet AGL
broken clouds at 15000 feet AGL
Weather: no significant weather observed at this time

Forecast for: RJFR (KITAKYUSHU/KOKUR, JP)
Text: TAF RJFR 182312Z 1900/2006 36011KT 9999 FEW030 BKN050
Forecast period: 0000 UTC 19 November 2018 to 0600 UTC 20 November 2018
Forecast type: FROM: standard forecast or significant change
Winds: from the N (360 degrees) at 13 MPH (11 knots; 5.7 m/s)
Visibility: 6 or more miles 10+ km)
Ceiling: 5000 feet AGL
Clouds: few clouds at 3000 feet AGL
broken clouds at 5000 feet AGL
Weather: no significant weather forecast for this period